sensor_id;sensor_type;location;lat;lon;timestamp;P1;durP1;ratioP1;P2;durP2;ratioP2
80823;SDS011;70228;59.128;37.936;2023-05-31T00:02:21;7.43;;;2.10;;
80823;SDS011;70228;59.128;37.936;2023-05-31T00:04:47;5.18;;;1.35;;
80823;SDS011;70228;59.128;37.936;2023-05-31T00:07:14;6.75;;;1.85;;
80823;SDS011;70228;59.128;37.936;2023-05-31T00:09:40;11.63;;;2.67;;
80823;SDS011;70228;59.128;37.936;2023-05-31T00:12:06;9.98;;;2.28;;
80823;SDS011;70228;59.128;37.936;2023-05-31T00:14:32;8.53;;;2.33;;
80823;SDS011;70228;59.128;37.936;2023-05-31T00:16:58;7.20;;;1.80;;
80823;SDS011;70228;59.128;37.936;2023-05-31T00:19:24;8.65;;;1.75;;
80823;SDS011;70228;59.128;37.936;2023-05-31T00:21:50;8.82;;;2.70;;
80823;SDS011;70228;59.128;37.936;2023-05-31T00:24:16;6.70;;;2.22;;
80823;SDS011;70228;59.128;37.936;2023-05-31T00:26:42;7.73;;;2.00;;
80823;SDS011;70228;59.128;37.936;2023-05-31T00:29:08;9.65;;;2.47;;
80823;SDS011;70228;59.128;37.936;2023-05-31T00:31:34;7.72;;;1.67;;
80823;SDS011;70228;59.128;37.936;2023-05-31T00:34:00;6.00;;;1.67;;
80823;SDS011;70228;59.128;37.936;2023-05-31T00:36:26;7.57;;;2.43;;
80823;SDS011;70228;59.128;37.936;2023-05-31T00:38:52;8.10;;;2.38;;
80823;SDS011;70228;59.128;37.936;2023-05-31T00:41:18;6.70;;;2.28;;
80823;SDS011;70228;59.128;37.936;2023-05-31T00:43:45;6.13;;;1.75;;
80823;SDS011;70228;59.128;37.936;2023-05-31T00:46:15;6.70;;;1.83;;
80823;SDS011;70228;59.128;37.936;2023-05-31T00:48:51;6.20;;;1.80;;
80823;SDS011;70228;59.128;37.936;2023-05-31T00:51:21;6.30;;;1.70;;
80823;SDS011;70228;59.128;37.936;2023-05-31T00:53:47;4.93;;;1.52;;
80823;SDS011;70228;59.128;37.936;2023-05-31T00:56:15;5.63;;;1.70;;
80823;SDS011;70228;59.128;37.936;2023-05-31T00:58:44;4.17;;;1.30;;
80823;SDS011;70228;59.128;37.936;2023-05-31T01:01:12;4.78;;;1.40;;
80823;SDS011;70228;59.128;37.936;2023-05-31T01:03:42;5.60;;;1.60;;
80823;SDS011;70228;59.128;37.936;2023-05-31T01:06:09;8.50;;;1.80;;
80823;SDS011;70228;59.128;37.936;2023-05-31T01:08:35;5.95;;;1.60;;
80823;SDS011;70228;59.128;37.936;2023-05-31T01:11:47;4.30;;;1.40;;
80823;SDS011;70228;59.128;37.936;2023-05-31T01:16:41;5.57;;;1.70;;
80823;SDS011;70228;59.128;37.936;2023-05-31T01:19:26;5.32;;;1.38;;
80823;SDS011;70228;59.128;37.936;2023-05-31T01:27:53;4.90;;;1.40;;
80823;SDS011;70228;59.128;37.936;2023-05-31T01:30:21;6.63;;;1.42;;
80823;SDS011;70228;59.128;37.936;2023-05-31T01:32:48;6.43;;;1.60;;
80823;SDS011;70228;59.128;37.936;2023-05-31T01:35:16;5.55;;;1.55;;
80823;SDS011;70228;59.128;37.936;2023-05-31T01:37:43;6.13;;;1.50;;
80823;SDS011;70228;59.128;37.936;2023-05-31T01:40:09;3.35;;;1.00;;
80823;SDS011;70228;59.128;37.936;2023-05-31T01:42:37;5.55;;;1.05;;
80823;SDS011;70228;59.128;37.936;2023-05-31T01:45:03;6.20;;;1.83;;
80823;SDS011;70228;59.128;37.936;2023-05-31T01:47:30;5.80;;;1.60;;
80823;SDS011;70228;59.128;37.936;2023-05-31T01:49:58;4.90;;;1.50;;
80823;SDS011;70228;59.128;37.936;2023-05-31T01:52:24;5.03;;;1.40;;
80823;SDS011;70228;59.128;37.936;2023-05-31T01:54:52;4.82;;;1.45;;
80823;SDS011;70228;59.128;37.936;2023-05-31T01:57:18;7.75;;;1.70;;
80823;SDS011;70228;59.128;37.936;2023-05-31T01:59:45;5.20;;;1.30;;
80823;SDS011;70228;59.128;37.936;2023-05-31T02:02:12;5.10;;;1.50;;
80823;SDS011;70228;59.128;37.936;2023-05-31T02:04:38;8.90;;;1.38;;
80823;SDS011;70228;59.128;37.936;2023-05-31T02:07:04;5.20;;;1.20;;
80823;SDS011;70228;59.128;37.936;2023-05-31T02:09:30;5.40;;;1.33;;
80823;SDS011;70228;59.128;37.936;2023-05-31T02:11:56;4.47;;;0.90;;
80823;SDS011;70228;59.128;37.936;2023-05-31T02:14:22;5.33;;;1.00;;
80823;SDS011;70228;59.128;37.936;2023-05-31T02:16:48;5.00;;;1.20;;
80823;SDS011;70228;59.128;37.936;2023-05-31T02:19:14;5.45;;;1.17;;
80823;SDS011;70228;59.128;37.936;2023-05-31T02:21:41;6.03;;;1.48;;
80823;SDS011;70228;59.128;37.936;2023-05-31T02:24:07;4.07;;;0.90;;
80823;SDS011;70228;59.128;37.936;2023-05-31T02:26:33;5.18;;;1.35;;
80823;SDS011;70228;59.128;37.936;2023-05-31T02:28:59;4.68;;;1.27;;
80823;SDS011;70228;59.128;37.936;2023-05-31T02:31:25;4.75;;;1.30;;
80823;SDS011;70228;59.128;37.936;2023-05-31T02:33:51;5.00;;;1.40;;
80823;SDS011;70228;59.128;37.936;2023-05-31T02:36:17;4.23;;;1.27;;
80823;SDS011;70228;59.128;37.936;2023-05-31T02:38:43;5.30;;;1.23;;
80823;SDS011;70228;59.128;37.936;2023-05-31T02:41:09;5.75;;;1.58;;
80823;SDS011;70228;59.128;37.936;2023-05-31T02:43:36;5.40;;;1.60;;
80823;SDS011;70228;59.128;37.936;2023-05-31T02:46:02;7.13;;;1.33;;
80823;SDS011;70228;59.128;37.936;2023-05-31T02:48:28;5.73;;;1.50;;
80823;SDS011;70228;59.128;37.936;2023-05-31T02:50:55;3.55;;;0.95;;
80823;SDS011;70228;59.128;37.936;2023-05-31T02:53:21;5.30;;;1.40;;
80823;SDS011;70228;59.128;37.936;2023-05-31T02:55:47;4.30;;;1.30;;
80823;SDS011;70228;59.128;37.936;2023-05-31T02:58:14;4.40;;;1.10;;
80823;SDS011;70228;59.128;37.936;2023-05-31T03:00:40;4.60;;;1.33;;
80823;SDS011;70228;59.128;37.936;2023-05-31T03:03:06;6.57;;;1.60;;
80823;SDS011;70228;59.128;37.936;2023-05-31T03:05:32;6.50;;;1.80;;
80823;SDS011;70228;59.128;37.936;2023-05-31T03:08:04;5.50;;;1.58;;
80823;SDS011;70228;59.128;37.936;2023-05-31T03:10:35;4.57;;;1.35;;
80823;SDS011;70228;59.128;37.936;2023-05-31T03:13:19;6.37;;;1.70;;
80823;SDS011;70228;59.128;37.936;2023-05-31T03:16:04;5.75;;;1.27;;
80823;SDS011;70228;59.128;37.936;2023-05-31T03:18:35;5.85;;;1.77;;
80823;SDS011;70228;59.128;37.936;2023-05-31T03:21:01;4.20;;;1.13;;
80823;SDS011;70228;59.128;37.936;2023-05-31T03:23:28;5.43;;;1.50;;
80823;SDS011;70228;59.128;37.936;2023-05-31T03:25:54;4.67;;;1.00;;
80823;SDS011;70228;59.128;37.936;2023-05-31T03:28:21;6.30;;;1.67;;
80823;SDS011;70228;59.128;37.936;2023-05-31T03:30:47;7.43;;;1.75;;
80823;SDS011;70228;59.128;37.936;2023-05-31T03:33:13;7.18;;;1.63;;
80823;SDS011;70228;59.128;37.936;2023-05-31T03:35:39;10.47;;;2.03;;
80823;SDS011;70228;59.128;37.936;2023-05-31T03:38:05;9.48;;;2.45;;
80823;SDS011;70228;59.128;37.936;2023-05-31T03:40:31;7.22;;;2.33;;
80823;SDS011;70228;59.128;37.936;2023-05-31T03:42:57;11.07;;;3.40;;
80823;SDS011;70228;59.128;37.936;2023-05-31T03:45:24;7.60;;;1.83;;
80823;SDS011;70228;59.128;37.936;2023-05-31T03:47:50;12.60;;;2.90;;
80823;SDS011;70228;59.128;37.936;2023-05-31T03:50:16;13.10;;;3.50;;
80823;SDS011;70228;59.128;37.936;2023-05-31T03:52:42;11.50;;;3.47;;
80823;SDS011;70228;59.128;37.936;2023-05-31T03:55:09;14.73;;;4.72;;
80823;SDS011;70228;59.128;37.936;2023-05-31T03:57:35;17.70;;;4.93;;
80823;SDS011;70228;59.128;37.936;2023-05-31T04:00:01;13.77;;;4.43;;
80823;SDS011;70228;59.128;37.936;2023-05-31T04:02:28;9.77;;;2.40;;
80823;SDS011;70228;59.128;37.936;2023-05-31T04:04:54;9.57;;;2.90;;
80823;SDS011;70228;59.128;37.936;2023-05-31T04:07:20;9.77;;;2.65;;
80823;SDS011;70228;59.128;37.936;2023-05-31T04:09:46;8.48;;;2.70;;
80823;SDS011;70228;59.128;37.936;2023-05-31T04:12:12;6.83;;;2.10;;
80823;SDS011;70228;59.128;37.936;2023-05-31T04:14:38;12.38;;;2.65;;
80823;SDS011;70228;59.128;37.936;2023-05-31T04:17:04;9.90;;;2.75;;
80823;SDS011;70228;59.128;37.936;2023-05-31T04:19:30;6.85;;;2.20;;
80823;SDS011;70228;59.128;37.936;2023-05-31T04:21:56;12.27;;;3.10;;
80823;SDS011;70228;59.128;37.936;2023-05-31T04:24:22;13.02;;;2.92;;
80823;SDS011;70228;59.128;37.936;2023-05-31T04:26:48;15.93;;;3.72;;
80823;SDS011;70228;59.128;37.936;2023-05-31T04:29:14;14.48;;;3.70;;
80823;SDS011;70228;59.128;37.936;2023-05-31T04:31:40;12.13;;;2.90;;
80823;SDS011;70228;59.128;37.936;2023-05-31T04:34:06;11.00;;;3.08;;
80823;SDS011;70228;59.128;37.936;2023-05-31T04:36:32;10.73;;;3.30;;
80823;SDS011;70228;59.128;37.936;2023-05-31T04:39:00;16.35;;;3.65;;
80823;SDS011;70228;59.128;37.936;2023-05-31T04:41:31;15.23;;;3.92;;
80823;SDS011;70228;59.128;37.936;2023-05-31T04:43:57;9.90;;;2.97;;
80823;SDS011;70228;59.128;37.936;2023-05-31T04:46:23;12.45;;;3.58;;
80823;SDS011;70228;59.128;37.936;2023-05-31T04:48:49;12.77;;;3.92;;
80823;SDS011;70228;59.128;37.936;2023-05-31T04:51:17;10.55;;;2.70;;
80823;SDS011;70228;59.128;37.936;2023-05-31T04:53:46;13.87;;;2.87;;
80823;SDS011;70228;59.128;37.936;2023-05-31T04:56:13;9.50;;;3.00;;
80823;SDS011;70228;59.128;37.936;2023-05-31T04:58:39;13.20;;;2.67;;
80823;SDS011;70228;59.128;37.936;2023-05-31T05:01:06;6.65;;;1.88;;
80823;SDS011;70228;59.128;37.936;2023-05-31T05:03:33;9.35;;;2.45;;
80823;SDS011;70228;59.128;37.936;2023-05-31T05:06:14;7.03;;;2.10;;
80823;SDS011;70228;59.128;37.936;2023-05-31T05:08:48;6.18;;;1.80;;
80823;SDS011;70228;59.128;37.936;2023-05-31T05:11:14;7.57;;;1.67;;
80823;SDS011;70228;59.128;37.936;2023-05-31T05:13:45;7.95;;;1.88;;
80823;SDS011;70228;59.128;37.936;2023-05-31T05:16:16;7.13;;;1.83;;
80823;SDS011;70228;59.128;37.936;2023-05-31T05:18:48;7.23;;;1.83;;
80823;SDS011;70228;59.128;37.936;2023-05-31T05:21:15;6.72;;;1.40;;
80823;SDS011;70228;59.128;37.936;2023-05-31T05:23:41;6.55;;;1.20;;
80823;SDS011;70228;59.128;37.936;2023-05-31T05:26:08;4.90;;;1.35;;
80823;SDS011;70228;59.128;37.936;2023-05-31T05:28:34;5.95;;;1.30;;
80823;SDS011;70228;59.128;37.936;2023-05-31T05:31:01;6.17;;;1.40;;
80823;SDS011;70228;59.128;37.936;2023-05-31T05:33:29;5.55;;;1.42;;
80823;SDS011;70228;59.128;37.936;2023-05-31T05:35:55;6.45;;;1.70;;
80823;SDS011;70228;59.128;37.936;2023-05-31T05:38:22;5.28;;;1.30;;
80823;SDS011;70228;59.128;37.936;2023-05-31T05:40:48;5.35;;;1.35;;
80823;SDS011;70228;59.128;37.936;2023-05-31T05:43:14;4.93;;;1.30;;
80823;SDS011;70228;59.128;37.936;2023-05-31T05:45:40;5.28;;;1.35;;
80823;SDS011;70228;59.128;37.936;2023-05-31T05:48:06;5.25;;;1.42;;
80823;SDS011;70228;59.128;37.936;2023-05-31T05:50:32;5.93;;;1.40;;
80823;SDS011;70228;59.128;37.936;2023-05-31T05:52:59;5.57;;;1.45;;
80823;SDS011;70228;59.128;37.936;2023-05-31T05:55:25;7.97;;;1.50;;
80823;SDS011;70228;59.128;37.936;2023-05-31T05:57:51;6.07;;;1.60;;
80823;SDS011;70228;59.128;37.936;2023-05-31T06:00:18;7.88;;;1.83;;
80823;SDS011;70228;59.128;37.936;2023-05-31T06:02:44;5.05;;;1.52;;
80823;SDS011;70228;59.128;37.936;2023-05-31T06:05:10;5.30;;;1.50;;
80823;SDS011;70228;59.128;37.936;2023-05-31T06:07:36;5.33;;;1.67;;
80823;SDS011;70228;59.128;37.936;2023-05-31T06:10:15;6.05;;;1.60;;
80823;SDS011;70228;59.128;37.936;2023-05-31T06:12:41;6.97;;;1.45;;
80823;SDS011;70228;59.128;37.936;2023-05-31T06:15:07;6.60;;;1.58;;
80823;SDS011;70228;59.128;37.936;2023-05-31T06:17:34;6.50;;;1.73;;
80823;SDS011;70228;59.128;37.936;2023-05-31T06:20:00;5.95;;;1.45;;
80823;SDS011;70228;59.128;37.936;2023-05-31T06:22:33;5.35;;;1.48;;
80823;SDS011;70228;59.128;37.936;2023-05-31T06:25:05;5.47;;;1.60;;
80823;SDS011;70228;59.128;37.936;2023-05-31T06:27:31;6.88;;;1.60;;
80823;SDS011;70228;59.128;37.936;2023-05-31T06:30:00;9.93;;;1.90;;
80823;SDS011;70228;59.128;37.936;2023-05-31T06:32:27;11.55;;;2.05;;
80823;SDS011;70228;59.128;37.936;2023-05-31T06:34:57;6.55;;;1.80;;
80823;SDS011;70228;59.128;37.936;2023-05-31T06:37:26;7.50;;;1.80;;
80823;SDS011;70228;59.128;37.936;2023-05-31T06:39:57;6.40;;;1.60;;
80823;SDS011;70228;59.128;37.936;2023-05-31T06:42:31;5.20;;;1.30;;
80823;SDS011;70228;59.128;37.936;2023-05-31T06:45:06;6.25;;;1.67;;
80823;SDS011;70228;59.128;37.936;2023-05-31T06:47:39;5.15;;;1.63;;
80823;SDS011;70228;59.128;37.936;2023-05-31T06:50:11;5.10;;;1.10;;
80823;SDS011;70228;59.128;37.936;2023-05-31T06:52:38;5.15;;;1.30;;
80823;SDS011;70228;59.128;37.936;2023-05-31T06:55:05;4.77;;;1.23;;
80823;SDS011;70228;59.128;37.936;2023-05-31T06:57:32;4.43;;;0.93;;
80823;SDS011;70228;59.128;37.936;2023-05-31T06:59:58;4.88;;;1.25;;
80823;SDS011;70228;59.128;37.936;2023-05-31T07:02:24;5.68;;;1.55;;
80823;SDS011;70228;59.128;37.936;2023-05-31T07:04:54;7.78;;;1.50;;
80823;SDS011;70228;59.128;37.936;2023-05-31T07:07:20;5.03;;;1.50;;
80823;SDS011;70228;59.128;37.936;2023-05-31T07:09:47;9.57;;;1.60;;
80823;SDS011;70228;59.128;37.936;2023-05-31T07:12:13;7.05;;;1.30;;
80823;SDS011;70228;59.128;37.936;2023-05-31T07:14:46;5.90;;;1.20;;
80823;SDS011;70228;59.128;37.936;2023-05-31T07:17:14;7.65;;;1.60;;
80823;SDS011;70228;59.128;37.936;2023-05-31T07:19:43;5.37;;;1.30;;
80823;SDS011;70228;59.128;37.936;2023-05-31T07:22:14;5.32;;;1.50;;
80823;SDS011;70228;59.128;37.936;2023-05-31T07:24:43;5.15;;;1.40;;
80823;SDS011;70228;59.128;37.936;2023-05-31T07:27:15;7.70;;;1.35;;
80823;SDS011;70228;59.128;37.936;2023-05-31T07:29:47;6.80;;;1.30;;
80823;SDS011;70228;59.128;37.936;2023-05-31T07:32:20;5.73;;;1.30;;
80823;SDS011;70228;59.128;37.936;2023-05-31T07:34:50;6.10;;;1.30;;
80823;SDS011;70228;59.128;37.936;2023-05-31T07:37:19;7.63;;;1.50;;
80823;SDS011;70228;59.128;37.936;2023-05-31T07:39:45;5.82;;;1.30;;
80823;SDS011;70228;59.128;37.936;2023-05-31T07:42:15;5.50;;;1.40;;
80823;SDS011;70228;59.128;37.936;2023-05-31T07:44:45;7.23;;;1.37;;
80823;SDS011;70228;59.128;37.936;2023-05-31T07:47:15;5.53;;;1.20;;
80823;SDS011;70228;59.128;37.936;2023-05-31T07:49:44;4.88;;;1.15;;
80823;SDS011;70228;59.128;37.936;2023-05-31T07:52:20;5.53;;;1.30;;
80823;SDS011;70228;59.128;37.936;2023-05-31T07:54:48;5.68;;;1.50;;
80823;SDS011;70228;59.128;37.936;2023-05-31T07:57:25;5.53;;;1.40;;
80823;SDS011;70228;59.128;37.936;2023-05-31T07:59:57;6.95;;;1.88;;
80823;SDS011;70228;59.128;37.936;2023-05-31T08:02:28;5.63;;;1.33;;
80823;SDS011;70228;59.128;37.936;2023-05-31T08:05:02;5.63;;;1.30;;
80823;SDS011;70228;59.128;37.936;2023-05-31T08:07:31;4.95;;;1.38;;
80823;SDS011;70228;59.128;37.936;2023-05-31T08:10:00;5.97;;;1.33;;
80823;SDS011;70228;59.128;37.936;2023-05-31T08:12:29;5.63;;;1.20;;
80823;SDS011;70228;59.128;37.936;2023-05-31T08:15:01;4.57;;;1.10;;
80823;SDS011;70228;59.128;37.936;2023-05-31T08:17:38;4.80;;;1.40;;
80823;SDS011;70228;59.128;37.936;2023-05-31T08:20:11;5.75;;;1.25;;
80823;SDS011;70228;59.128;37.936;2023-05-31T08:22:42;5.40;;;1.73;;
80823;SDS011;70228;59.128;37.936;2023-05-31T08:25:21;5.35;;;1.92;;
80823;SDS011;70228;59.128;37.936;2023-05-31T08:27:50;6.22;;;1.20;;
80823;SDS011;70228;59.128;37.936;2023-05-31T08:30:21;3.72;;;1.15;;
80823;SDS011;70228;59.128;37.936;2023-05-31T08:32:54;5.15;;;1.25;;
80823;SDS011;70228;59.128;37.936;2023-05-31T08:35:23;6.77;;;1.40;;
80823;SDS011;70228;59.128;37.936;2023-05-31T08:37:55;6.85;;;1.67;;
80823;SDS011;70228;59.128;37.936;2023-05-31T08:40:24;8.93;;;1.70;;
80823;SDS011;70228;59.128;37.936;2023-05-31T08:43:00;8.30;;;1.85;;
80823;SDS011;70228;59.128;37.936;2023-05-31T08:45:28;6.00;;;1.80;;
80823;SDS011;70228;59.128;37.936;2023-05-31T08:50:42;5.38;;;1.70;;
80823;SDS011;70228;59.128;37.936;2023-05-31T08:53:17;8.27;;;1.60;;
80823;SDS011;70228;59.128;37.936;2023-05-31T08:55:43;6.20;;;1.90;;
80823;SDS011;70228;59.128;37.936;2023-05-31T08:58:13;6.43;;;1.70;;
80823;SDS011;70228;59.128;37.936;2023-05-31T09:00:40;6.77;;;1.57;;
80823;SDS011;70228;59.128;37.936;2023-05-31T09:03:08;4.43;;;1.10;;
80823;SDS011;70228;59.128;37.936;2023-05-31T09:05:38;7.38;;;1.50;;
80823;SDS011;70228;59.128;37.936;2023-05-31T09:08:04;8.52;;;1.70;;
80823;SDS011;70228;59.128;37.936;2023-05-31T09:10:30;4.23;;;1.10;;
80823;SDS011;70228;59.128;37.936;2023-05-31T09:12:56;4.68;;;1.00;;
80823;SDS011;70228;59.128;37.936;2023-05-31T09:15:23;3.67;;;0.90;;
80823;SDS011;70228;59.128;37.936;2023-05-31T09:17:50;5.40;;;1.33;;
80823;SDS011;70228;59.128;37.936;2023-05-31T09:20:18;5.60;;;1.30;;
80823;SDS011;70228;59.128;37.936;2023-05-31T09:22:53;7.13;;;1.30;;
80823;SDS011;70228;59.128;37.936;2023-05-31T09:25:19;4.93;;;1.52;;
80823;SDS011;70228;59.128;37.936;2023-05-31T09:27:46;6.40;;;1.80;;
80823;SDS011;70228;59.128;37.936;2023-05-31T09:30:15;4.57;;;1.05;;
80823;SDS011;70228;59.128;37.936;2023-05-31T09:32:41;6.45;;;1.42;;
80823;SDS011;70228;59.128;37.936;2023-05-31T09:35:22;5.17;;;1.30;;
80823;SDS011;70228;59.128;37.936;2023-05-31T09:37:52;6.22;;;1.48;;
80823;SDS011;70228;59.128;37.936;2023-05-31T09:40:29;5.18;;;1.30;;
80823;SDS011;70228;59.128;37.936;2023-05-31T09:43:04;5.50;;;1.40;;
80823;SDS011;70228;59.128;37.936;2023-05-31T09:45:39;5.85;;;1.27;;
80823;SDS011;70228;59.128;37.936;2023-05-31T09:48:24;5.27;;;1.40;;
80823;SDS011;70228;59.128;37.936;2023-05-31T09:51:08;5.07;;;1.42;;
80823;SDS011;70228;59.128;37.936;2023-05-31T09:53:56;6.32;;;1.20;;
80823;SDS011;70228;59.128;37.936;2023-05-31T09:56:26;6.53;;;1.38;;
80823;SDS011;70228;59.128;37.936;2023-05-31T09:58:55;3.90;;;0.80;;
80823;SDS011;70228;59.128;37.936;2023-05-31T10:01:22;5.43;;;1.20;;
80823;SDS011;70228;59.128;37.936;2023-05-31T10:03:53;7.63;;;1.90;;
80823;SDS011;70228;59.128;37.936;2023-05-31T10:06:27;5.10;;;1.48;;
80823;SDS011;70228;59.128;37.936;2023-05-31T10:08:54;6.25;;;1.50;;
80823;SDS011;70228;59.128;37.936;2023-05-31T10:11:26;4.97;;;1.20;;
80823;SDS011;70228;59.128;37.936;2023-05-31T10:13:59;4.60;;;1.20;;
80823;SDS011;70228;59.128;37.936;2023-05-31T10:16:28;6.22;;;1.63;;
80823;SDS011;70228;59.128;37.936;2023-05-31T10:19:02;5.40;;;1.23;;
80823;SDS011;70228;59.128;37.936;2023-05-31T10:21:36;4.90;;;1.20;;
80823;SDS011;70228;59.128;37.936;2023-05-31T10:24:08;5.10;;;1.40;;
80823;SDS011;70228;59.128;37.936;2023-05-31T10:26:53;3.57;;;0.87;;
80823;SDS011;70228;59.128;37.936;2023-05-31T10:29:27;4.57;;;1.13;;
80823;SDS011;70228;59.128;37.936;2023-05-31T10:32:00;5.40;;;1.38;;
80823;SDS011;70228;59.128;37.936;2023-05-31T10:34:33;5.18;;;1.50;;
80823;SDS011;70228;59.128;37.936;2023-05-31T10:36:59;5.68;;;1.50;;
80823;SDS011;70228;59.128;37.936;2023-05-31T10:39:43;4.73;;;1.47;;
80823;SDS011;70228;59.128;37.936;2023-05-31T10:50:54;5.38;;;1.52;;
80823;SDS011;70228;59.128;37.936;2023-05-31T10:53:28;6.10;;;1.33;;
80823;SDS011;70228;59.128;37.936;2023-05-31T10:56:02;4.45;;;1.30;;
80823;SDS011;70228;59.128;37.936;2023-05-31T10:58:30;4.40;;;1.20;;
80823;SDS011;70228;59.128;37.936;2023-05-31T11:01:07;6.40;;;1.40;;
80823;SDS011;70228;59.128;37.936;2023-05-31T11:03:35;7.57;;;1.77;;
80823;SDS011;70228;59.128;37.936;2023-05-31T11:06:08;7.27;;;1.60;;
80823;SDS011;70228;59.128;37.936;2023-05-31T11:08:36;6.53;;;1.50;;
80823;SDS011;70228;59.128;37.936;2023-05-31T11:19:17;4.40;;;1.10;;
80823;SDS011;70228;59.128;37.936;2023-05-31T11:22:10;5.95;;;1.20;;
80823;SDS011;70228;59.128;37.936;2023-05-31T11:24:48;6.40;;;1.50;;
80823;SDS011;70228;59.128;37.936;2023-05-31T11:27:22;7.22;;;1.50;;
80823;SDS011;70228;59.128;37.936;2023-05-31T11:29:59;4.60;;;1.30;;
80823;SDS011;70228;59.128;37.936;2023-05-31T11:35:04;10.05;;;3.67;;
80823;SDS011;70228;59.128;37.936;2023-05-31T11:37:33;14.75;;;5.18;;
80823;SDS011;70228;59.128;37.936;2023-05-31T11:40:02;14.82;;;6.82;;
80823;SDS011;70228;59.128;37.936;2023-05-31T11:42:36;13.70;;;6.13;;
80823;SDS011;70228;59.128;37.936;2023-05-31T11:45:04;17.87;;;7.70;;
80823;SDS011;70228;59.128;37.936;2023-05-31T11:47:53;16.08;;;7.13;;
80823;SDS011;70228;59.128;37.936;2023-05-31T11:50:20;11.40;;;4.75;;
80823;SDS011;70228;59.128;37.936;2023-05-31T11:52:49;10.13;;;3.10;;
80823;SDS011;70228;59.128;37.936;2023-05-31T11:55:20;7.60;;;2.28;;
80823;SDS011;70228;59.128;37.936;2023-05-31T11:57:47;5.93;;;1.67;;
80823;SDS011;70228;59.128;37.936;2023-05-31T12:00:17;6.50;;;1.60;;
80823;SDS011;70228;59.128;37.936;2023-05-31T12:02:50;8.25;;;2.17;;
80823;SDS011;70228;59.128;37.936;2023-05-31T12:05:22;11.52;;;3.35;;
80823;SDS011;70228;59.128;37.936;2023-05-31T12:07:52;15.00;;;4.38;;
80823;SDS011;70228;59.128;37.936;2023-05-31T12:10:19;12.10;;;3.17;;
80823;SDS011;70228;59.128;37.936;2023-05-31T12:12:48;13.02;;;3.53;;
80823;SDS011;70228;59.128;37.936;2023-05-31T12:15:15;13.65;;;3.60;;
80823;SDS011;70228;59.128;37.936;2023-05-31T12:17:42;12.10;;;3.45;;
80823;SDS011;70228;59.128;37.936;2023-05-31T12:20:08;8.75;;;2.72;;
80823;SDS011;70228;59.128;37.936;2023-05-31T12:22:38;9.57;;;2.60;;
80823;SDS011;70228;59.128;37.936;2023-05-31T12:25:04;11.93;;;2.45;;
80823;SDS011;70228;59.128;37.936;2023-05-31T12:27:32;7.80;;;2.10;;
80823;SDS011;70228;59.128;37.936;2023-05-31T12:29:58;9.93;;;1.70;;
80823;SDS011;70228;59.128;37.936;2023-05-31T12:32:28;8.13;;;1.80;;
80823;SDS011;70228;59.128;37.936;2023-05-31T12:35:07;6.87;;;1.57;;
80823;SDS011;70228;59.128;37.936;2023-05-31T12:37:35;5.35;;;1.40;;
80823;SDS011;70228;59.128;37.936;2023-05-31T12:40:11;5.20;;;1.35;;
80823;SDS011;70228;59.128;37.936;2023-05-31T12:42:41;6.10;;;1.48;;
80823;SDS011;70228;59.128;37.936;2023-05-31T12:45:08;6.43;;;1.58;;
80823;SDS011;70228;59.128;37.936;2023-05-31T12:47:35;9.00;;;1.50;;
80823;SDS011;70228;59.128;37.936;2023-05-31T12:50:05;6.80;;;1.77;;
80823;SDS011;70228;59.128;37.936;2023-05-31T12:52:33;7.05;;;2.10;;
80823;SDS011;70228;59.128;37.936;2023-05-31T12:55:00;7.95;;;1.75;;
80823;SDS011;70228;59.128;37.936;2023-05-31T12:57:27;8.55;;;1.85;;
80823;SDS011;70228;59.128;37.936;2023-05-31T12:59:57;7.00;;;2.00;;
80823;SDS011;70228;59.128;37.936;2023-05-31T13:02:33;7.75;;;1.60;;
80823;SDS011;70228;59.128;37.936;2023-05-31T13:04:59;6.53;;;1.42;;
80823;SDS011;70228;59.128;37.936;2023-05-31T13:07:25;7.00;;;1.45;;
80823;SDS011;70228;59.128;37.936;2023-05-31T13:09:51;5.30;;;1.23;;
80823;SDS011;70228;59.128;37.936;2023-05-31T13:12:17;7.70;;;1.50;;
80823;SDS011;70228;59.128;37.936;2023-05-31T13:14:45;10.82;;;1.70;;
80823;SDS011;70228;59.128;37.936;2023-05-31T13:17:11;10.85;;;2.58;;
80823;SDS011;70228;59.128;37.936;2023-05-31T13:19:37;6.40;;;1.77;;
80823;SDS011;70228;59.128;37.936;2023-05-31T13:22:04;4.37;;;1.20;;
80823;SDS011;70228;59.128;37.936;2023-05-31T13:24:30;6.05;;;1.40;;
80823;SDS011;70228;59.128;37.936;2023-05-31T13:26:56;5.72;;;1.55;;
80823;SDS011;70228;59.128;37.936;2023-05-31T13:29:22;7.55;;;1.60;;
80823;SDS011;70228;59.128;37.936;2023-05-31T13:31:49;8.52;;;1.77;;
80823;SDS011;70228;59.128;37.936;2023-05-31T13:34:15;6.93;;;1.50;;
80823;SDS011;70228;59.128;37.936;2023-05-31T13:36:43;4.00;;;1.02;;
80823;SDS011;70228;59.128;37.936;2023-05-31T13:39:09;7.05;;;1.30;;
80823;SDS011;70228;59.128;37.936;2023-05-31T13:41:39;4.95;;;1.13;;
80823;SDS011;70228;59.128;37.936;2023-05-31T13:44:05;6.28;;;1.27;;
80823;SDS011;70228;59.128;37.936;2023-05-31T13:46:31;6.10;;;1.03;;
80823;SDS011;70228;59.128;37.936;2023-05-31T13:48:57;7.93;;;1.35;;
80823;SDS011;70228;59.128;37.936;2023-05-31T13:51:23;5.03;;;1.50;;
80823;SDS011;70228;59.128;37.936;2023-05-31T13:53:49;6.72;;;1.80;;
80823;SDS011;70228;59.128;37.936;2023-05-31T13:56:15;6.63;;;1.92;;
80823;SDS011;70228;59.128;37.936;2023-05-31T13:58:41;8.93;;;1.60;;
80823;SDS011;70228;59.128;37.936;2023-05-31T14:01:07;5.38;;;1.20;;
80823;SDS011;70228;59.128;37.936;2023-05-31T14:03:33;10.98;;;1.50;;
80823;SDS011;70228;59.128;37.936;2023-05-31T14:06:03;9.10;;;2.30;;
80823;SDS011;70228;59.128;37.936;2023-05-31T14:08:30;7.50;;;2.03;;
80823;SDS011;70228;59.128;37.936;2023-05-31T14:10:56;7.87;;;2.10;;
80823;SDS011;70228;59.128;37.936;2023-05-31T14:13:22;7.13;;;1.70;;
80823;SDS011;70228;59.128;37.936;2023-05-31T14:15:48;8.00;;;2.22;;
80823;SDS011;70228;59.128;37.936;2023-05-31T14:18:14;6.20;;;1.35;;
80823;SDS011;70228;59.128;37.936;2023-05-31T14:20:44;6.05;;;1.35;;
80823;SDS011;70228;59.128;37.936;2023-05-31T14:23:11;6.23;;;1.40;;
80823;SDS011;70228;59.128;37.936;2023-05-31T14:25:38;6.03;;;1.38;;
80823;SDS011;70228;59.128;37.936;2023-05-31T14:28:04;6.50;;;1.60;;
80823;SDS011;70228;59.128;37.936;2023-05-31T14:30:30;11.60;;;1.70;;
80823;SDS011;70228;59.128;37.936;2023-05-31T14:32:56;6.53;;;1.53;;
80823;SDS011;70228;59.128;37.936;2023-05-31T14:35:22;9.50;;;1.98;;
80823;SDS011;70228;59.128;37.936;2023-05-31T14:37:48;7.25;;;1.77;;
80823;SDS011;70228;59.128;37.936;2023-05-31T14:40:14;12.88;;;2.00;;
80823;SDS011;70228;59.128;37.936;2023-05-31T14:42:40;13.77;;;2.70;;
80823;SDS011;70228;59.128;37.936;2023-05-31T14:45:07;10.50;;;2.40;;
80823;SDS011;70228;59.128;37.936;2023-05-31T14:47:33;7.75;;;1.58;;
80823;SDS011;70228;59.128;37.936;2023-05-31T14:50:02;8.40;;;2.10;;
80823;SDS011;70228;59.128;37.936;2023-05-31T14:52:29;7.13;;;2.33;;
80823;SDS011;70228;59.128;37.936;2023-05-31T14:54:55;5.17;;;1.20;;
80823;SDS011;70228;59.128;37.936;2023-05-31T14:57:21;6.40;;;1.73;;
80823;SDS011;70228;59.128;37.936;2023-05-31T14:59:47;7.78;;;1.80;;
80823;SDS011;70228;59.128;37.936;2023-05-31T15:02:13;6.55;;;1.50;;
80823;SDS011;70228;59.128;37.936;2023-05-31T15:04:39;8.27;;;1.50;;
80823;SDS011;70228;59.128;37.936;2023-05-31T15:07:06;8.02;;;1.40;;
80823;SDS011;70228;59.128;37.936;2023-05-31T15:09:32;4.97;;;1.10;;
80823;SDS011;70228;59.128;37.936;2023-05-31T15:11:58;4.38;;;1.10;;
80823;SDS011;70228;59.128;37.936;2023-05-31T15:14:24;6.63;;;1.20;;